Terminal Aerodrome Forecast
Issued by NWS

Home | Current Version | Previous Version | Text Only | Print | Product List | Glossary On
Versions: 1 2 3 4 5 6 7 8 9 10 11 12 13 14 15 16 17 18 19 20 21 22
000
FTUS43 KILX 061128
TAFDEC
TAF
KDEC 061128Z 0612/0712 18005KT 4SM BR SKC
     FM061400 18012KT P6SM SCT030
     FM061900 19012G20KT P6SM SCT050
     FM070300 19010KT P6SM SCT040 BKN250
     FM070600 19011KT P6SM VCTS BKN040CB=

USA.gov is the U.S. government's official web portal to all federal, state and local government web resources and services.